メインページ
METAR-TAF:

METAR-TAF

空港 :

カンザスシティ, ミズーリ州, アメリカ合衆国

カンザスシティ国際空港

緯度: 39-17-50N, 経度: 094-43-50W, 海抜: 312m

現時点の気象観測

当レポートは49分前の18:53(UTC)に作成
北/北東の風 10kt
気温 11°C
湿度 94%
気圧 1011 hPa
視程: 16.1km
高度800ftの曇り

METAR: KMCI 251853Z 02010KT 10SM OVC008 11/10 A2984 RMK AO2 RAB01E12 CIG 007V011 SLP104 P0000 T01110100

時間: 14:42 (19:42 UTC)

予報

当レポートは2時間22分前の17:20(UTC)に作成
予報は25日の 18時(UTC)から 26日の 18時(UTC)まで有効
北/北西の風 9kt
視程: 10km
高度900ftの千切れ雲あり
近辺でにわか雨
25日の 18時(UTC)から 25日の 20時(UTC)まで一時的に
視程: 8.0km
高度500ftの曇り
26日の 0000時(UTC)から
北西の風 5kt
視程: 10km
高度500ftの曇り
26日の 1700時(UTC)から
西の風 5kt
視程: 10km
高度2000ftの千切れ雲あり

TAF: KMCI 251720Z 2518/2618 34009KT P6SM VCSH BKN009 TEMPO 2518/2520 5SM BR OVC005 FM260000 31005KT P6SM OVC005 FM261700 27005KT P6SM BKN020

4,000以上の空港の気象観測と天気予報(METAR報とTAF報)

利用可能な観測所は地図上に黄色い丸と赤い丸で示す。

丸の上にカーソルを重ねると観測所名を参照できる。

次にクリックすると気象観測と天気予報を参照できる。

マップの切り替え:黒色「×」印の緑ボタンをクリックして拡大、「-」印の緑ボタンをクリックして縮小、緑色の三角印をクリックして隣りの地図に切り替え


METAR-TAF: